Time;durP1;ratioP1;P1;durP2;ratioP2;P2;SDS_P1;SDS_P2;PMS_P1;PMS_P2;Temp;Humidity;BMP_temperature;BMP_pressure;BME280_temperature;BME280_humidity;BME280_pressure;Samples;Min_cycle;Max_cycle;Signal;HPM_P1;HPM_P2
2022/03/01 00:01:12;;;;;;;;;;;;;;;1.19;64.92;101935.91;5015043;28;1229;-89
2022/03/01 00:03:38;;;;;;;;;;;;;;;0.74;65.62;101934.94;5015072;28;1212;-88
2022/03/01 00:06:03;;;;;;;;;;;;;;;0.33;66.98;101942.50;5015184;28;1192;-88
2022/03/01 00:08:28;;;;;;;;;;;;;;;0.43;67.39;101944.94;5015093;28;814;-89
2022/03/01 00:10:53;;;;;;;;;;;;;;;0.55;67.54;101927.34;5035726;28;1277;-89
2022/03/01 00:13:18;;;;;;;;;;;;;;;0.47;67.69;101928.25;5018462;28;1519;-88
2022/03/01 00:15:44;;;;;;;;;;;;;;;0.51;67.54;101940.31;5018620;28;1902;-88
2022/03/01 00:18:09;;;;;;;;;;;;;;;0.42;67.89;101927.97;5018518;28;1953;-88
2022/03/01 00:20:34;;;;;;;;;;;;;;;0.38;68.07;101924.78;5018196;28;1952;-87
2022/03/01 00:22:59;;;;;;;;;;;;;;;0.41;67.90;101933.53;5036109;28;1539;-88
2022/03/01 00:25:24;;;;;;;;;;;;;;;0.46;68.04;101939.19;5036283;28;1023;-88
2022/03/01 00:27:49;;;;;;;;;;;;;;;0.22;68.32;101935.66;5018676;28;1295;-89
2022/03/01 00:30:14;;;;;;;;;;;;;;;0.09;68.68;101940.75;5018384;28;1496;-88
2022/03/01 00:32:39;;;;;;;;;;;;;;;0.00;68.94;101939.97;5036025;28;1263;-88
2022/03/01 00:35:05;;;;;;;;;;;;;;;-0.26;69.64;101939.44;5035815;28;1024;-89
2022/03/01 00:37:30;;;;;;;;;;;;;;;-0.14;69.75;101946.09;5035825;28;1902;-88
2022/03/01 00:39:55;;;;;;;;;;;;;;;-0.07;69.69;101939.00;5036060;28;892;-88
2022/03/01 00:42:20;;;;;;;;;;;;;;;0.01;69.79;101938.13;5018468;28;1213;-87
2022/03/01 00:44:45;;;;;;;;;;;;;;;-0.12;69.84;101956.69;5017933;28;1732;-88
2022/03/01 00:47:10;;;;;;;;;;;;;;;-0.28;70.29;101943.31;5018663;28;1251;-89
2022/03/01 00:49:36;;;;;;;;;;;;;;;-0.28;70.50;101937.94;5019246;28;1572;-88
2022/03/01 00:52:01;;;;;;;;;;;;;;;-0.18;70.37;101935.88;5019084;28;1324;-89
2022/03/01 00:54:26;;;;;;;;;;;;;;;-0.17;70.11;101949.13;5018967;28;1522;-89
2022/03/01 00:56:51;;;;;;;;;;;;;;;-0.29;70.24;101939.78;5019092;28;1959;-89
2022/03/01 00:59:16;;;;;;;;;;;;;;;-0.23;70.24;101928.31;5019182;28;1393;-88
2022/03/01 01:01:42;;;;;;;;;;;;;;;-0.23;70.31;101933.69;5018810;28;1174;-90
2022/03/01 01:04:07;;;;;;;;;;;;;;;-0.25;70.59;101940.25;5018873;28;1212;-89
2022/03/01 01:06:32;;;;;;;;;;;;;;;-0.38;70.65;101938.13;5018610;28;1199;-89
2022/03/01 01:09:04;;;;;;;;;;;;;;;-0.42;70.98;101931.41;5018912;28;1169;-89
2022/03/01 01:11:29;;;;;;;;;;;;;;;-0.33;71.01;101933.06;5018227;28;1551;-89
2022/03/01 01:13:55;;;;;;;;;;;;;;;-0.29;71.02;101925.50;5018341;28;1040;-88
2022/03/01 01:16:20;;;;;;;;;;;;;;;-0.16;70.99;101928.44;5018313;28;1952;-88
2022/03/01 01:18:45;;;;;;;;;;;;;;;-0.28;71.10;101929.84;5018591;28;1405;-89
2022/03/01 01:21:11;;;;;;;;;;;;;;;-0.32;71.05;101931.22;5017677;28;1592;-89
2022/03/01 01:23:36;;;;;;;;;;;;;;;-0.41;71.13;101941.16;5018277;28;1289;-88
2022/03/01 01:26:01;;;;;;;;;;;;;;;-0.48;71.72;101927.56;5018563;28;1172;-88
2022/03/01 01:28:26;;;;;;;;;;;;;;;-0.40;71.53;101926.69;5018401;28;980;-88
2022/03/01 01:30:51;;;;;;;;;;;;;;;-0.32;71.48;101933.91;5018355;28;1267;-88
2022/03/01 01:33:17;;;;;;;;;;;;;;;-0.56;71.50;101935.66;5018297;28;854;-88
2022/03/01 01:35:42;;;;;;;;;;;;;;;-0.54;71.84;101936.34;5018213;28;1906;-88
2022/03/01 01:38:07;;;;;;;;;;;;;;;-0.38;72.03;101928.22;5018284;28;1314;-88
2022/03/01 01:40:33;;;;;;;;;;;;;;;-0.10;71.68;101925.91;5018261;28;1196;-88
2022/03/01 01:42:58;;;;;;;;;;;;;;;-0.02;71.26;101941.19;5018329;28;1247;-89
2022/03/01 01:45:25;;;;;;;;;;;;;;;0.07;71.22;101934.75;5018331;28;1165;-88
2022/03/01 01:47:50;;;;;;;;;;;;;;;-0.05;71.10;101925.38;5035717;28;987;-88
2022/03/01 01:50:16;;;;;;;;;;;;;;;-0.17;71.42;101926.78;5035597;28;1740;-88
2022/03/01 01:52:43;;;;;;;;;;;;;;;-0.22;71.37;101935.38;5035527;28;1185;-89
2022/03/01 01:55:08;;;;;;;;;;;;;;;-0.13;71.63;101926.25;5017863;28;1296;-89
2022/03/01 01:57:34;;;;;;;;;;;;;;;-0.14;71.28;101935.34;5017995;28;1957;-88
2022/03/01 02:00:00;;;;;;;;;;;;;;;-0.24;71.62;101941.94;5017775;28;951;-88
2022/03/01 02:02:26;;;;;;;;;;;;;;;-0.45;71.29;101935.31;5035278;28;1184;-88
2022/03/01 02:04:51;;;;;;;;;;;;;;;-0.53;71.97;101942.56;5035287;28;797;-89
2022/03/01 02:07:16;;;;;;;;;;;;;;;-0.61;71.96;101940.75;5017594;28;1304;-88
2022/03/01 02:09:42;;;;;;;;;;;;;;;-0.68;72.01;101944.28;5017798;28;1340;-88
2022/03/01 02:12:08;;;;;;;;;;;;;;;-0.63;72.36;101948.13;5017754;28;1287;-88
2022/03/01 02:14:33;;;;;;;;;;;;;;;-0.53;72.34;101943.41;5017376;28;1257;-88
2022/03/01 02:16:59;;;;;;;;;;;;;;;-0.71;72.16;101950.84;5018053;28;1882;-88
2022/03/01 02:19:24;;;;;;;;;;;;;;;-0.79;72.47;101946.31;5018203;28;1208;-88
2022/03/01 02:21:51;;;;;;;;;;;;;;;-0.71;72.55;101940.09;5017962;28;1252;-88
2022/03/01 02:24:17;;;;;;;;;;;;;;;-0.59;72.36;101940.53;5017278;28;1600;-87
2022/03/01 02:26:42;;;;;;;;;;;;;;;-0.54;72.52;101935.50;5017983;28;1204;-88
2022/03/01 02:29:07;;;;;;;;;;;;;;;-0.37;72.29;101937.13;5034959;28;829;-88
2022/03/01 02:31:33;;;;;;;;;;;;;;;-0.24;72.07;101932.00;5017412;28;1273;-88
2022/03/01 02:33:58;;;;;;;;;;;;;;;-0.17;71.72;101924.91;5033872;28;1050;-88
2022/03/01 02:36:23;;;;;;;;;;;;;;;-0.07;71.74;101933.63;5017376;28;1890;-88
2022/03/01 02:38:48;;;;;;;;;;;;;;;-0.06;71.31;101921.84;5017265;28;1418;-88
2022/03/01 02:41:13;;;;;;;;;;;;;;;-0.07;71.24;101919.31;5017109;28;1431;-88
2022/03/01 02:43:38;;;;;;;;;;;;;;;0.06;70.97;101921.44;5035184;28;864;-88
2022/03/01 02:46:04;;;;;;;;;;;;;;;0.06;70.82;101916.06;5017063;28;1084;-88
2022/03/01 02:48:29;;;;;;;;;;;;;;;0.07;70.87;101915.06;5017644;28;1360;-87
2022/03/01 02:50:54;;;;;;;;;;;;;;;0.11;70.79;101914.50;5017371;28;1190;-88
2022/03/01 02:53:19;;;;;;;;;;;;;;;0.13;70.57;101909.78;5017572;28;1317;-88
2022/03/01 02:55:44;;;;;;;;;;;;;;;0.12;70.45;101912.66;5017097;28;1902;-89
2022/03/01 02:58:09;;;;;;;;;;;;;;;0.12;70.45;101918.03;5016693;28;1655;-88
2022/03/01 03:00:34;;;;;;;;;;;;;;;0.11;70.29;101919.91;5034761;28;1252;-88
2022/03/01 03:03:00;;;;;;;;;;;;;;;0.09;70.25;101916.53;5017362;28;1037;-88
2022/03/01 03:05:25;;;;;;;;;;;;;;;0.14;70.36;101916.03;5017099;28;1060;-87
2022/03/01 03:07:50;;;;;;;;;;;;;;;0.09;70.12;101923.78;5016788;28;1209;-88
2022/03/01 03:10:16;;;;;;;;;;;;;;;0.13;69.98;101928.63;5016879;28;1164;-87
2022/03/01 03:12:42;;;;;;;;;;;;;;;0.17;69.86;101929.94;5016705;28;1354;-88
2022/03/01 03:15:07;;;;;;;;;;;;;;;0.21;69.83;101925.06;5016962;28;1337;-88
2022/03/01 03:17:32;;;;;;;;;;;;;;;0.22;69.68;101922.19;5016219;28;1898;-88
2022/03/01 03:19:57;;;;;;;;;;;;;;;0.24;69.52;101924.72;5016634;28;1309;-88
2022/03/01 03:22:23;;;;;;;;;;;;;;;0.14;69.57;101922.25;5034212;28;1179;-88
2022/03/01 03:24:49;;;;;;;;;;;;;;;0.08;69.68;101920.28;5034300;28;797;-88
2022/03/01 03:27:14;;;;;;;;;;;;;;;0.06;69.62;101919.59;5016275;28;1190;-89
2022/03/01 03:29:39;;;;;;;;;;;;;;;0.13;69.84;101907.09;5016343;28;1232;-89
2022/03/01 03:32:04;;;;;;;;;;;;;;;0.18;69.34;101911.94;5016306;28;1200;-88
2022/03/01 03:34:29;;;;;;;;;;;;;;;0.17;69.49;101907.59;5016445;28;1303;-88
2022/03/01 03:36:55;;;;;;;;;;;;;;;0.17;69.50;101902.22;5016400;28;1906;-88
2022/03/01 03:39:20;;;;;;;;;;;;;;;0.14;69.50;101916.03;5034255;28;853;-88
2022/03/01 03:41:46;;;;;;;;;;;;;;;0.09;69.65;101908.47;5016403;28;1355;-87
2022/03/01 03:44:11;;;;;;;;;;;;;;;0.12;69.56;101907.28;5016772;28;1168;-89
2022/03/01 03:46:36;;;;;;;;;;;;;;;0.13;69.53;101895.50;5020570;28;1383;-88
2022/03/01 03:49:03;;;;;;;;;;;;;;;0.13;69.43;101895.50;5020400;28;1399;-88
2022/03/01 03:51:28;;;;;;;;;;;;;;;0.07;69.52;101891.66;5013982;28;1500;-88
2022/03/01 03:53:53;;;;;;;;;;;;;;;0.07;69.38;101898.91;5020410;28;1539;-88
2022/03/01 03:56:19;;;;;;;;;;;;;;;0.07;69.42;101905.13;5020122;28;1902;-88
2022/03/01 03:58:44;;;;;;;;;;;;;;;0.04;69.35;101891.19;5019951;28;1627;-88
2022/03/01 04:01:10;;;;;;;;;;;;;;;0.03;69.32;101898.41;5020008;28;1339;-88
2022/03/01 04:03:35;;;;;;;;;;;;;;;-0.04;69.29;101900.13;5019947;28;1221;-89
2022/03/01 04:06:01;;;;;;;;;;;;;;;-0.08;69.43;101904.19;5019919;28;1345;-87
2022/03/01 04:08:27;;;;;;;;;;;;;;;-0.06;69.41;101896.78;5019615;28;1641;-88
2022/03/01 04:10:52;;;;;;;;;;;;;;;-0.11;69.63;101897.31;5019888;28;1409;-88
2022/03/01 04:13:17;;;;;;;;;;;;;;;-0.09;69.58;101907.91;5019825;28;1262;-88
2022/03/01 04:15:42;;;;;;;;;;;;;;;-0.02;69.22;101912.41;5019669;28;1898;-87
2022/03/01 04:18:07;;;;;;;;;;;;;;;-0.02;69.13;101900.81;5019720;28;1204;-88
2022/03/01 04:20:37;;;;;;;;;;;;;;;0.00;69.18;101917.63;5019684;28;1184;-88
2022/03/01 04:23:02;;;;;;;;;;;;;;;-0.09;69.14;101913.31;5019340;28;1495;-88
2022/03/01 04:25:27;;;;;;;;;;;;;;;-0.05;69.00;101920.00;5019158;28;1051;-88
2022/03/01 04:27:52;;;;;;;;;;;;;;;-0.06;69.13;101911.06;5019357;28;1028;-89
2022/03/01 04:30:17;;;;;;;;;;;;;;;-0.05;69.15;101914.59;5036946;28;991;-88
2022/03/01 04:32:45;;;;;;;;;;;;;;;-0.04;68.75;101917.13;5019760;28;1185;-88
2022/03/01 04:35:10;;;;;;;;;;;;;;;-0.04;68.69;101913.59;5037203;28;809;-88
2022/03/01 04:37:36;;;;;;;;;;;;;;;-0.08;68.89;101917.63;5019442;28;1890;-88
2022/03/01 04:40:01;;;;;;;;;;;;;;;-0.03;68.71;101908.03;5036974;28;1008;-88
2022/03/01 04:42:26;;;;;;;;;;;;;;;0.04;68.68;101921.63;5036635;28;1182;-89
2022/03/01 04:44:52;;;;;;;;;;;;;;;0.04;68.30;101918.94;5018815;28;1059;-89
2022/03/01 04:47:17;;;;;;;;;;;;;;;0.05;68.36;101920.63;5018907;28;1217;-89
2022/03/01 04:49:42;;;;;;;;;;;;;;;0.04;68.29;101910.84;5036413;28;1043;-88
2022/03/01 04:52:07;;;;;;;;;;;;;;;0.01;68.22;101905.81;5018631;28;1283;-88
2022/03/01 04:54:32;;;;;;;;;;;;;;;0.00;68.20;101907.66;5018489;28;1448;-88
2022/03/01 04:56:58;;;;;;;;;;;;;;;-0.05;68.29;101901.16;5017747;28;1898;-88
2022/03/01 04:59:23;;;;;;;;;;;;;;;-0.08;68.33;101905.03;5018969;28;1197;-88
2022/03/01 05:01:48;;;;;;;;;;;;;;;-0.08;68.29;101906.88;5019151;28;1209;-88
2022/03/01 05:04:13;;;;;;;;;;;;;;;-0.07;68.23;101917.47;5037033;28;1746;-87
2022/03/01 05:06:38;;;;;;;;;;;;;;;-0.08;68.17;101920.34;5019468;28;1317;-87
2022/03/01 05:09:03;;;;;;;;;;;;;;;-0.12;68.44;101909.09;5019492;28;1209;-88
2022/03/01 05:11:29;;;;;;;;;;;;;;;-0.10;68.21;101900.84;5037199;28;1306;-88
2022/03/01 05:13:59;;;;;;;;;;;;;;;-0.10;68.40;101907.06;5019214;28;1216;-88
2022/03/01 05:16:25;;;;;;;;;;;;;;;-0.13;68.18;101902.03;5018600;28;1894;-88
2022/03/01 05:18:50;;;;;;;;;;;;;;;-0.16;68.44;101904.22;5019039;28;1195;-88
2022/03/01 05:21:15;;;;;;;;;;;;;;;-0.17;68.19;101897.19;5018621;28;1181;-88
2022/03/01 05:23:40;;;;;;;;;;;;;;;-0.18;68.53;101898.22;5018736;28;922;-87
2022/03/01 05:26:05;;;;;;;;;;;;;;;-0.17;68.60;101899.88;5018472;28;1248;-88
2022/03/01 05:28:30;;;;;;;;;;;;;;;-0.20;68.46;101897.53;5018480;28;893;-88
2022/03/01 05:30:56;;;;;;;;;;;;;;;-0.19;68.39;101900.06;5018331;28;1191;-88
2022/03/01 05:33:21;;;;;;;;;;;;;;;-0.21;68.41;101906.63;5018444;28;1157;-88
2022/03/01 05:35:46;;;;;;;;;;;;;;;-0.20;68.24;101902.91;5018321;28;1898;-89
2022/03/01 05:38:11;;;;;;;;;;;;;;;-0.19;68.33;101908.13;5018789;28;1145;-87
2022/03/01 05:40:43;;;;;;;;;;;;;;;-0.17;68.09;101910.66;5018414;28;1226;-88
2022/03/01 05:43:11;;;;;;;;;;;;;;;-0.16;68.02;101906.91;5017661;28;1197;-88
2022/03/01 05:45:37;;;;;;;;;;;;;;;-0.20;68.00;101905.59;5036823;28;1016;-88
2022/03/01 05:48:02;;;;;;;;;;;;;;;-0.14;67.68;101916.50;5018765;28;1314;-87
2022/03/01 05:50:27;;;;;;;;;;;;;;;-0.08;67.25;101905.03;5018600;28;1777;-87
2022/03/01 05:52:53;;;;;;;;;;;;;;;-0.08;67.16;101920.34;5018614;28;1327;-88
2022/03/01 05:55:18;;;;;;;;;;;;;;;-0.12;67.22;101911.78;5018808;28;1533;-88
2022/03/01 05:57:44;;;;;;;;;;;;;;;-0.15;67.33;101913.97;5018093;28;1902;-89
2022/03/01 06:00:10;;;;;;;;;;;;;;;-0.10;66.90;101912.47;5018032;28;1292;-88
2022/03/01 06:02:35;;;;;;;;;;;;;;;-0.12;66.90;101913.63;5017678;28;1338;-88
2022/03/01 06:05:28;;;;;;;;;;;;;;;-0.20;66.76;101913.69;5018622;28;938;-87
2022/03/01 06:07:56;;;;;;;;;;;;;;;-0.18;66.99;101914.34;5018643;28;1235;-86
2022/03/01 06:10:21;;;;;;;;;;;;;;;-0.18;66.90;101909.81;5013403;28;1238;-88
2022/03/01 06:12:46;;;;;;;;;;;;;;;-0.18;66.51;101906.28;5008245;28;1422;-87
2022/03/01 06:15:11;;;;;;;;;;;;;;;-0.18;66.53;101912.50;5032349;28;1516;-88
2022/03/01 06:17:37;;;;;;;;;;;;;;;-0.21;66.90;101909.31;5003759;28;1891;-87
2022/03/01 06:20:03;;;;;;;;;;;;;;;-0.20;66.64;101905.59;4998346;28;1208;-88
2022/03/01 06:22:28;;;;;;;;;;;;;;;-0.21;66.49;101912.84;4997672;28;1481;-88
2022/03/01 06:24:56;;;;;;;;;;;;;;;-0.24;66.59;101904.25;4998048;28;1279;-89
2022/03/01 06:27:22;;;;;;;;;;;;;;;-0.21;66.67;101912.00;4997778;28;1241;-88
2022/03/01 06:29:48;;;;;;;;;;;;;;;-0.23;66.49;101911.31;5015248;28;1214;-88
2022/03/01 06:32:13;;;;;;;;;;;;;;;-0.20;66.29;101903.75;4997653;28;1205;-88
2022/03/01 06:34:38;;;;;;;;;;;;;;;-0.15;66.14;101914.81;4997787;28;1319;-88
2022/03/01 06:37:03;;;;;;;;;;;;;;;-0.16;66.05;101917.69;4997484;28;1898;-88
2022/03/01 06:39:28;;;;;;;;;;;;;;;-0.12;65.93;101924.41;4997833;28;1253;-88
2022/03/01 06:41:53;;;;;;;;;;;;;;;-0.14;65.76;101921.88;4998601;28;1345;-87
2022/03/01 06:44:19;;;;;;;;;;;;;;;-0.15;65.61;101927.44;4998243;28;1347;-87
2022/03/01 06:46:44;;;;;;;;;;;;;;;-0.06;65.54;101938.00;4998089;28;1280;-87
2022/03/01 06:49:09;;;;;;;;;;;;;;;0.00;65.40;101931.09;4997775;28;1197;-87
2022/03/01 06:51:34;;;;;;;;;;;;;;;-0.01;65.10;101943.69;5015420;28;1279;-88
2022/03/01 06:54:00;;;;;;;;;;;;;;;-0.04;65.14;101945.88;4997505;28;1187;-88
2022/03/01 06:56:25;;;;;;;;;;;;;;;0.00;65.28;101941.84;4997174;28;1902;-88
2022/03/01 06:58:50;;;;;;;;;;;;;;;0.03;65.32;101946.88;4997130;28;1235;-87
2022/03/01 07:01:15;;;;;;;;;;;;;;;0.08;65.16;101949.03;4997234;28;1328;-88
2022/03/01 07:03:42;;;;;;;;;;;;;;;0.09;64.74;101948.00;5014848;28;985;-87
2022/03/01 07:06:07;;;;;;;;;;;;;;;0.16;64.85;101957.91;4996943;28;1339;-88
2022/03/01 07:08:32;;;;;;;;;;;;;;;0.24;64.32;101957.03;4996784;28;1280;-88
2022/03/01 07:10:58;;;;;;;;;;;;;;;0.26;63.97;101952.28;4996887;28;1306;-88
2022/03/01 07:13:23;;;;;;;;;;;;;;;0.26;63.79;101949.59;4997000;28;1262;-88
2022/03/01 07:15:48;;;;;;;;;;;;;;;0.23;63.85;101953.50;4996972;28;1898;-88
2022/03/01 07:18:13;;;;;;;;;;;;;;;0.20;63.97;101948.44;4997696;28;976;-87
2022/03/01 07:20:39;;;;;;;;;;;;;;;0.24;63.84;101951.63;5014468;28;1201;-88
2022/03/01 07:23:04;;;;;;;;;;;;;;;0.28;63.74;101948.41;4997216;28;1209;-87
2022/03/01 07:25:29;;;;;;;;;;;;;;;0.31;63.42;101948.06;4996888;28;1326;-90
2022/03/01 07:27:55;;;;;;;;;;;;;;;0.27;63.33;101941.34;4996977;28;1326;-89
2022/03/01 07:30:21;;;;;;;;;;;;;;;0.27;63.47;101938.63;4996680;28;1161;-90
2022/03/01 07:32:46;;;;;;;;;;;;;;;0.31;63.37;101942.66;4996731;28;1275;-89
2022/03/01 07:35:12;;;;;;;;;;;;;;;0.26;63.00;101944.19;5014242;28;964;-89
2022/03/01 07:37:37;;;;;;;;;;;;;;;0.23;63.40;101940.03;5014287;28;1898;-90
2022/03/01 07:40:04;;;;;;;;;;;;;;;0.27;63.17;101929.72;4997154;28;1419;-89
2022/03/01 07:42:29;;;;;;;;;;;;;;;0.33;63.20;101929.88;4997012;28;1343;-90
2022/03/01 07:44:54;;;;;;;;;;;;;;;0.34;63.01;101936.91;5014422;28;1078;-89
2022/03/01 07:47:19;;;;;;;;;;;;;;;0.37;62.86;101935.72;4996833;28;1012;-89
2022/03/01 07:49:47;;;;;;;;;;;;;;;0.44;62.64;101936.69;4996985;28;961;-89
2022/03/01 07:52:12;;;;;;;;;;;;;;;0.45;62.48;101924.88;4996599;28;1176;-89
2022/03/01 07:54:37;;;;;;;;;;;;;;;0.43;62.57;101932.31;4996946;28;1292;-89
2022/03/01 07:57:02;;;;;;;;;;;;;;;0.44;62.48;101925.91;4996799;28;1898;-89
2022/03/01 07:59:27;;;;;;;;;;;;;;;0.47;62.60;101927.41;4996681;28;1309;-89
2022/03/01 08:01:54;;;;;;;;;;;;;;;0.56;62.51;101926.34;4996644;28;1307;-89
2022/03/01 08:04:20;;;;;;;;;;;;;;;0.59;62.39;101937.59;4996749;28;1313;-89
2022/03/01 08:06:45;;;;;;;;;;;;;;;0.64;61.95;101932.50;4996726;28;1257;-89
2022/03/01 08:09:10;;;;;;;;;;;;;;;0.64;61.72;101929.81;4996532;28;1166;-89
2022/03/01 08:11:35;;;;;;;;;;;;;;;0.71;61.53;101935.31;4996406;28;1212;-89
2022/03/01 08:14:00;;;;;;;;;;;;;;;0.76;61.52;101930.22;5014318;28;1024;-90
2022/03/01 08:16:25;;;;;;;;;;;;;;;0.79;61.29;101929.84;4996393;28;1957;-90
2022/03/01 08:18:51;;;;;;;;;;;;;;;0.82;60.90;101932.19;4996565;28;1346;-89
2022/03/01 08:21:16;;;;;;;;;;;;;;;0.89;60.82;101927.75;4996314;28;1178;-89
2022/03/01 08:23:42;;;;;;;;;;;;;;;0.93;60.63;101925.53;4996320;28;1115;-90
2022/03/01 08:26:07;;;;;;;;;;;;;;;1.00;60.50;101935.41;5013865;28;813;-89
2022/03/01 08:28:33;;;;;;;;;;;;;;;1.06;60.33;101933.81;4996490;28;1233;-89
2022/03/01 08:30:58;;;;;;;;;;;;;;;1.06;60.29;101925.72;4996201;28;1318;-89
2022/03/01 08:33:24;;;;;;;;;;;;;;;1.14;60.00;101923.78;5017381;28;806;-89
2022/03/01 08:35:49;;;;;;;;;;;;;;;1.21;60.02;101925.75;4999610;28;1895;-88
2022/03/01 08:38:15;;;;;;;;;;;;;;;1.29;59.75;101914.88;4999600;28;1331;-88
2022/03/01 08:40:40;;;;;;;;;;;;;;;1.36;59.59;101922.03;4999662;28;1197;-86
2022/03/01 08:43:06;;;;;;;;;;;;;;;1.41;59.57;101921.50;5000484;28;1310;-86
2022/03/01 08:45:32;;;;;;;;;;;;;;;1.46;59.13;101919.91;5017889;28;893;-86
2022/03/01 08:47:57;;;;;;;;;;;;;;;1.51;59.17;101924.75;5017825;28;1042;-87
2022/03/01 08:50:22;;;;;;;;;;;;;;;1.56;58.84;101925.03;5017740;28;997;-86
2022/03/01 08:52:49;;;;;;;;;;;;;;;1.61;58.74;101929.88;4999820;28;1280;-86
2022/03/01 08:55:14;;;;;;;;;;;;;;;1.69;58.44;101922.50;5017633;28;853;-86
2022/03/01 08:57:39;;;;;;;;;;;;;;;1.73;58.48;101915.69;5000253;28;1898;-87
2022/03/01 09:00:07;;;;;;;;;;;;;;;1.76;58.30;101915.34;5000538;28;1222;-87
2022/03/01 09:02:32;;;;;;;;;;;;;;;1.80;58.24;101911.22;5000035;28;1240;-86
2022/03/01 09:04:57;;;;;;;;;;;;;;;1.81;58.34;101910.19;4999480;28;1016;-87
2022/03/01 09:07:23;;;;;;;;;;;;;;;1.86;58.19;101904.25;4999623;28;1173;-87
2022/03/01 09:09:48;;;;;;;;;;;;;;;1.88;58.27;101902.16;4999775;28;1279;-87
2022/03/01 09:12:13;;;;;;;;;;;;;;;1.87;58.26;101901.34;4999741;28;1224;-87
2022/03/01 09:14:38;;;;;;;;;;;;;;;1.89;58.69;101888.50;4999493;28;1187;-88
2022/03/01 09:17:03;;;;;;;;;;;;;;;1.93;58.33;101901.63;5016773;28;1894;-88
2022/03/01 09:19:29;;;;;;;;;;;;;;;1.90;57.94;101892.88;4998914;28;1094;-88
2022/03/01 09:21:55;;;;;;;;;;;;;;;1.91;58.08;101891.00;4999374;28;1275;-88
2022/03/01 09:24:20;;;;;;;;;;;;;;;1.96;57.68;101895.84;4998968;28;1259;-88
2022/03/01 09:26:45;;;;;;;;;;;;;;;1.94;57.88;101889.81;4999412;28;1427;-88
2022/03/01 09:29:10;;;;;;;;;;;;;;;1.93;58.03;101896.22;4999087;28;1217;-88
2022/03/01 09:31:36;;;;;;;;;;;;;;;1.92;57.67;101899.94;5016126;28;1178;-88
2022/03/01 09:34:01;;;;;;;;;;;;;;;1.85;57.81;101892.59;4998781;28;1301;-89
2022/03/01 09:36:26;;;;;;;;;;;;;;;1.83;57.50;101897.34;5009444;28;1963;-89
2022/03/01 09:38:51;;;;;;;;;;;;;;;1.82;57.54;101895.69;5018199;28;1068;-87
2022/03/01 09:41:16;;;;;;;;;;;;;;;1.79;57.16;101896.03;5018782;28;1209;-88
2022/03/01 09:43:42;;;;;;;;;;;;;;;1.79;57.21;101896.03;5017784;28;1326;-88
2022/03/01 09:46:08;;;;;;;;;;;;;;;1.83;56.80;101891.97;5036440;28;881;-87
2022/03/01 09:48:34;;;;;;;;;;;;;;;1.92;56.78;101887.28;5018357;28;1288;-88
2022/03/01 09:51:00;;;;;;;;;;;;;;;2.01;56.92;101890.72;5018143;28;1332;-88
2022/03/01 09:53:26;;;;;;;;;;;;;;;2.05;56.83;101894.69;5048679;23;1705;-88
2022/03/01 09:55:52;;;;;;;;;;;;;;;2.13;56.76;101897.25;5030704;28;1914;-88
2022/03/01 09:58:17;;;;;;;;;;;;;;;2.11;56.64;101904.75;5030855;28;1267;-88
2022/03/01 10:00:43;;;;;;;;;;;;;;;2.11;56.54;101899.34;5031050;28;1315;-88
2022/03/01 10:03:08;;;;;;;;;;;;;;;2.15;56.25;101893.34;5017047;28;1198;-89
2022/03/01 10:05:40;;;;;;;;;;;;;;;2.16;56.62;101902.28;5033575;28;1587;-90
2022/03/01 10:08:09;;;;;;;;;;;;;;;2.12;57.11;101906.44;5034064;28;1186;-89
2022/03/01 10:10:39;;;;;;;;;;;;;;;2.13;56.55;101908.91;5033572;28;1179;-88
2022/03/01 10:13:04;;;;;;;;;;;;;;;2.14;56.45;101904.34;5033465;28;1251;-88
2022/03/01 10:15:31;;;;;;;;;;;;;;;2.11;56.13;101897.47;5033239;28;1109;-87
2022/03/01 10:17:56;;;;;;;;;;;;;;;2.14;56.26;101891.69;5034584;28;1890;-85
2022/03/01 10:20:21;;;;;;;;;;;;;;;2.16;56.63;101902.28;5034728;28;949;-85
2022/03/01 10:22:52;;;;;;;;;;;;;;;2.23;56.64;101889.69;5033401;28;1201;-85
2022/03/01 10:25:18;;;;;;;;;;;;;;;2.32;56.67;101885.84;5032974;28;1220;-85
2022/03/01 10:27:44;;;;;;;;;;;;;;;2.36;56.62;101897.13;5033266;28;1164;-86
2022/03/01 10:30:09;;;;;;;;;;;;;;;2.41;55.95;101903.59;5033235;28;1261;-86
2022/03/01 10:32:35;;;;;;;;;;;;;;;2.48;55.64;101896.41;5034345;28;1488;-86
2022/03/01 10:35:01;;;;;;;;;;;;;;;2.47;55.63;101885.78;5036348;28;1037;-85
2022/03/01 10:37:27;;;;;;;;;;;;;;;2.49;55.53;101881.84;5036074;28;1902;-85
2022/03/01 10:40:08;;;;;;;;;;;;;;;2.54;55.46;101895.66;5035160;28;1230;-86
2022/03/01 10:42:33;;;;;;;;;;;;;;;2.57;54.96;101897.09;5034652;28;1414;-86
2022/03/01 10:44:58;;;;;;;;;;;;;;;2.60;54.91;101896.72;5030564;28;1321;-84
2022/03/01 10:47:23;;;;;;;;;;;;;;;2.60;55.04;101884.03;5030633;28;994;-86
2022/03/01 10:49:59;;;;;;;;;;;;;;;2.70;55.77;101883.72;5016529;28;897;-87
2022/03/01 10:52:30;;;;;;;;;;;;;;;2.82;55.26;101882.13;5015803;28;1209;-86
2022/03/01 10:54:55;;;;;;;;;;;;;;;2.86;54.82;101890.72;5030393;28;1239;-86
2022/03/01 10:57:21;;;;;;;;;;;;;;;2.90;55.23;101891.97;5031020;28;1902;-86
2022/03/01 10:59:46;;;;;;;;;;;;;;;2.95;54.64;101887.66;5016206;28;813;-86
2022/03/01 11:02:12;;;;;;;;;;;;;;;2.96;54.48;101866.88;5031209;28;1275;-86
2022/03/01 11:04:37;;;;;;;;;;;;;;;3.03;55.04;101859.63;5014722;28;1289;-86
2022/03/01 11:07:04;;;;;;;;;;;;;;;3.09;54.65;101858.84;5016607;28;889;-86
2022/03/01 11:09:30;;;;;;;;;;;;;;;3.18;54.83;101854.09;5016444;28;794;-85
2022/03/01 11:11:56;;;;;;;;;;;;;;;3.28;54.71;101852.72;5031699;28;1192;-86
2022/03/01 11:14:23;;;;;;;;;;;;;;;3.39;54.82;101859.44;5031987;28;1259;-86
2022/03/01 11:16:48;;;;;;;;;;;;;;;3.47;53.94;101851.16;5032414;28;1965;-86
2022/03/01 11:19:22;;;;;;;;;;;;;;;3.49;54.07;101850.97;5015239;28;1316;-86
2022/03/01 11:21:49;;;;;;;;;;;;;;;3.63;53.79;101842.69;5014661;28;1291;-86
2022/03/01 11:24:15;;;;;;;;;;;;;;;3.67;54.18;101843.09;5016613;28;805;-86
2022/03/01 11:26:40;;;;;;;;;;;;;;;3.70;53.62;101843.53;5015601;28;1172;-86
2022/03/01 11:29:09;;;;;;;;;;;;;;;3.80;53.61;101840.47;5015843;28;819;-86
2022/03/01 11:31:35;;;;;;;;;;;;;;;3.82;53.88;101841.09;5032434;28;1298;-86
2022/03/01 11:34:01;;;;;;;;;;;;;;;3.89;53.33;101841.94;5018262;28;1015;-86
2022/03/01 11:36:28;;;;;;;;;;;;;;;3.93;53.43;101832.38;5017416;28;1957;-86
2022/03/01 11:38:53;;;;;;;;;;;;;;;3.99;52.90;101833.44;5017716;28;952;-87
2022/03/01 11:41:20;;;;;;;;;;;;;;;4.04;53.02;101825.53;5031595;28;1193;-86
2022/03/01 11:43:52;;;;;;;;;;;;;;;4.14;53.32;101843.06;5032761;28;1388;-85
2022/03/01 11:46:18;;;;;;;;;;;;;;;4.19;52.80;101835.13;5030768;28;1224;-86
2022/03/01 11:48:53;;;;;;;;;;;;;;;4.18;52.26;101824.50;5014441;28;1228;-86
2022/03/01 11:51:19;;;;;;;;;;;;;;;4.25;52.53;101829.94;5029070;28;1211;-86
2022/03/01 11:53:45;;;;;;;;;;;;;;;4.36;52.72;101829.31;5030504;28;1294;-86
2022/03/01 11:56:12;;;;;;;;;;;;;;;4.46;52.64;101825.16;5029480;28;1890;-86
2022/03/01 11:58:37;;;;;;;;;;;;;;;4.61;52.69;101818.69;5015181;28;844;-86
2022/03/01 12:01:06;;;;;;;;;;;;;;;4.68;52.48;101820.34;5029255;28;1385;-87
2022/03/01 12:03:32;;;;;;;;;;;;;;;4.78;52.31;101807.19;5029577;28;1366;-86
2022/03/01 12:05:57;;;;;;;;;;;;;;;4.91;52.24;101806.38;5014774;28;1160;-87
2022/03/01 12:08:27;;;;;;;;;;;;;;;5.01;52.01;101803.22;5034027;28;1271;-87
2022/03/01 12:10:57;;;;;;;;;;;;;;;5.11;52.28;101800.88;5033260;28;1286;-87
2022/03/01 12:13:32;;;;;;;;;;;;;;;5.13;51.90;101796.06;5032457;28;1295;-87
2022/03/01 12:15:58;;;;;;;;;;;;;;;5.08;51.45;101793.19;5033420;28;1894;-87
2022/03/01 12:18:30;;;;;;;;;;;;;;;5.03;51.78;101790.25;5018827;28;786;-86
2022/03/01 12:21:00;;;;;;;;;;;;;;;4.92;51.88;101780.91;5018586;28;872;-87
2022/03/01 12:42:31;;;;;;;;;;;;;;;;;;;;;
2022/03/01 12:45:19;;;;;;;;;;;;;;;5.53;50.04;101750.63;4983069;28;779;-85
2022/03/01 12:47:53;;;;;;;;;;;;;;;5.62;50.26;101752.84;4959356;28;1264;-87
2022/03/01 12:50:21;;;;;;;;;;;;;;;5.67;50.45;101744.06;4975983;28;1445;-86
2022/03/01 12:53:16;;;;;;;;;;;;;;;5.64;50.29;101741.78;4998889;28;1284;-85
2022/03/01 12:56:20;;;;;;;;;;;;;;;;;;;;;
2022/03/01 13:02:20;;;;;;;;;;;;;;;5.72;49.65;101739.63;4961899;28;1230;-85
2022/03/01 13:04:49;;;;;;;;;;;;;;;5.69;49.34;101740.09;5033662;28;1185;-85
2022/03/01 13:07:15;;;;;;;;;;;;;;;5.66;48.96;101737.78;5057371;28;1342;-86
2022/03/01 13:09:40;;;;;;;;;;;;;;;5.70;48.43;101739.00;5049183;28;1320;-84
2022/03/01 13:12:06;;;;;;;;;;;;;;;5.77;48.56;101738.16;5066140;28;1327;-83
2022/03/01 13:14:31;;;;;;;;;;;;;;;5.90;48.47;101740.81;5048865;28;1291;-84